Time;durP1;ratioP1;P1;durP2;ratioP2;P2;SDS_P1;SDS_P2;PMS_P1;PMS_P2;Temp;Humidity;BMP_temperature;BMP_pressure;BME280_temperature;BME280_humidity;BME280_pressure;Samples;Min_cycle;Max_cycle;Signal;HPM_P1;HPM_P2
2023/05/28 00:02:12;;;;;;;0.90;0.90;;;11.10;99.90;;;;;;5056892;28;20052;-68
2023/05/28 00:04:37;;;;;;;0.82;0.82;;;11.00;99.90;;;;;;5050680;28;20114;-68
2023/05/28 00:07:03;;;;;;;1.73;1.50;;;11.00;99.90;;;;;;5054918;28;20051;-68
2023/05/28 00:09:29;;;;;;;1.50;1.17;;;11.00;99.90;;;;;;5061901;28;20093;-68
2023/05/28 00:11:56;;;;;;;0.73;0.73;;;10.90;99.90;;;;;;5048593;28;20409;-68
2023/05/28 00:14:22;;;;;;;0.60;0.60;;;10.90;99.90;;;;;;5050972;28;20516;-68
2023/05/28 00:16:50;;;;;;;1.00;0.80;;;10.90;99.90;;;;;;5055169;28;20109;-68
2023/05/28 00:19:16;;;;;;;17.92;1.63;;;10.90;99.90;;;;;;5057668;28;20418;-68
2023/05/28 00:21:42;;;;;;;0.50;0.50;;;10.90;99.90;;;;;;5052752;28;20048;-68
2023/05/28 00:24:08;;;;;;;0.77;0.77;;;10.80;99.90;;;;;;5056031;28;20037;-68
2023/05/28 00:26:33;;;;;;;3.95;0.93;;;10.80;99.90;;;;;;5059459;28;20097;-68
2023/05/28 00:28:59;;;;;;;9.73;1.33;;;10.80;99.90;;;;;;5049909;28;20132;-68
2023/05/28 00:31:24;;;;;;;0.50;0.50;;;10.70;99.90;;;;;;5058295;28;20524;-68
2023/05/28 00:33:50;;;;;;;0.40;0.40;;;10.60;99.90;;;;;;5051461;28;20072;-68
2023/05/28 00:36:16;;;;;;;0.65;0.65;;;10.60;99.90;;;;;;5059813;28;20044;-68
2023/05/28 00:38:41;;;;;;;3.17;2.50;;;10.40;99.90;;;;;;5052385;28;20464;-68
2023/05/28 00:41:07;;;;;;;1.27;1.08;;;10.30;99.90;;;;;;5060532;28;20045;-68
2023/05/28 00:43:33;;;;;;;0.47;0.47;;;10.30;99.90;;;;;;5049346;28;20052;-68
2023/05/28 00:46:03;;;;;;;0.80;0.80;;;10.20;99.90;;;;;;5051812;28;20045;-68
2023/05/28 00:48:29;;;;;;;0.60;0.60;;;10.20;99.90;;;;;;5055447;28;20037;-68
2023/05/28 00:50:56;;;;;;;2.20;1.45;;;10.20;99.90;;;;;;5049907;28;20052;-68
2023/05/28 00:53:23;;;;;;;0.93;0.93;;;10.20;99.90;;;;;;5049914;28;20065;-68
2023/05/28 00:55:48;;;;;;;0.80;0.80;;;10.10;99.90;;;;;;5049939;28;20099;-68
2023/05/28 00:58:15;;;;;;;1.65;1.02;;;10.10;99.90;;;;;;5057030;28;20449;-68
2023/05/28 01:00:43;;;;;;;1.30;1.20;;;10.10;99.90;;;;;;5051940;28;20059;-68
2023/05/28 01:03:09;;;;;;;0.75;0.75;;;10.10;99.90;;;;;;5044051;28;20840;-68
2023/05/28 01:05:36;;;;;;;0.32;0.32;;;10.10;99.90;;;;;;5053981;28;20040;-68
2023/05/28 01:08:03;;;;;;;0.83;0.83;;;10.10;99.90;;;;;;5053324;28;20045;-68
2023/05/28 01:10:31;;;;;;;0.50;0.50;;;10.10;99.90;;;;;;5056088;28;20288;-68
2023/05/28 01:12:58;;;;;;;0.55;0.55;;;10.20;99.90;;;;;;5041492;28;20095;-68
2023/05/28 01:15:25;;;;;;;2.13;0.98;;;10.20;99.90;;;;;;5055431;28;20060;-68
2023/05/28 01:17:57;;;;;;;2.58;1.13;;;10.20;99.90;;;;;;5046940;28;20098;-68
2023/05/28 01:20:23;;;;;;;1.02;1.00;;;10.20;99.90;;;;;;5055112;28;20047;-68
2023/05/28 01:22:55;;;;;;;2.08;1.15;;;10.20;99.90;;;;;;5052971;28;20083;-68
2023/05/28 01:25:22;;;;;;;0.90;0.85;;;10.20;99.90;;;;;;5055057;28;20045;-68
2023/05/28 01:27:48;;;;;;;0.65;0.65;;;10.20;99.90;;;;;;5057058;28;20461;-68
2023/05/28 01:30:14;;;;;;;1.48;1.38;;;10.10;99.90;;;;;;5046210;28;20066;-68
2023/05/28 01:32:41;;;;;;;0.73;0.73;;;10.10;99.90;;;;;;5058123;28;20072;-68
2023/05/28 01:35:09;;;;;;;0.60;0.60;;;10.10;99.90;;;;;;5049971;28;20116;-68
2023/05/28 01:37:40;;;;;;;0.85;0.73;;;10.00;99.90;;;;;;5056668;28;20048;-68
2023/05/28 01:40:08;;;;;;;6.07;1.65;;;10.00;99.90;;;;;;5051834;28;20048;-68
2023/05/28 01:42:34;;;;;;;1.40;1.30;;;10.10;99.90;;;;;;5051829;28;20079;-68
2023/05/28 01:45:02;;;;;;;0.52;0.52;;;10.00;99.90;;;;;;5057398;28;20077;-68
2023/05/28 01:47:28;;;;;;;1.40;1.33;;;9.90;99.90;;;;;;5053803;28;20045;-68
2023/05/28 01:49:54;;;;;;;1.05;1.05;;;9.90;99.90;;;;;;5057933;28;20044;-68
2023/05/28 01:52:20;;;;;;;0.73;0.73;;;9.80;99.90;;;;;;5049529;28;20090;-68
2023/05/28 01:54:46;;;;;;;0.90;0.90;;;9.80;99.90;;;;;;5054170;28;20056;-68
2023/05/28 01:57:11;;;;;;;0.40;0.40;;;9.80;99.90;;;;;;5060747;28;20173;-68
2023/05/28 01:59:37;;;;;;;0.68;0.68;;;9.70;99.90;;;;;;5048613;28;20033;-68
2023/05/28 02:02:04;;;;;;;0.40;0.40;;;9.70;99.90;;;;;;5054560;28;20041;-68
2023/05/28 02:04:29;;;;;;;0.50;0.50;;;9.80;99.90;;;;;;5051899;28;20106;-68
2023/05/28 02:06:55;;;;;;;0.70;0.70;;;9.80;99.90;;;;;;5056884;28;20044;-68
2023/05/28 02:09:21;;;;;;;0.65;0.65;;;9.90;99.90;;;;;;5052500;28;20047;-68
2023/05/28 02:11:47;;;;;;;0.40;0.40;;;9.90;99.90;;;;;;5047372;28;20037;-68
2023/05/28 02:14:14;;;;;;;0.40;0.40;;;9.90;99.90;;;;;;5052016;28;20048;-68
2023/05/28 02:16:45;;;;;;;1.27;1.17;;;10.00;99.90;;;;;;5047378;28;20048;-68
2023/05/28 02:19:11;;;;;;;0.65;0.65;;;10.00;99.90;;;;;;5051967;28;20044;-68
2023/05/28 02:21:37;;;;;;;0.40;0.40;;;10.00;99.90;;;;;;5050813;28;20040;-68
2023/05/28 02:24:03;;;;;;;1.00;1.00;;;10.00;99.90;;;;;;5057643;28;20481;-68
2023/05/28 02:26:29;;;;;;;0.55;0.55;;;10.00;99.90;;;;;;5049354;28;20068;-68
2023/05/28 02:28:55;;;;;;;0.73;0.65;;;10.00;99.90;;;;;;5050173;28;20079;-68
2023/05/28 02:31:20;;;;;;;0.40;0.40;;;10.10;99.90;;;;;;5046803;28;20391;-68
2023/05/28 02:33:46;;;;;;;0.93;0.73;;;10.10;99.90;;;;;;5043055;28;20045;-68
2023/05/28 02:36:12;;;;;;;1.23;1.13;;;10.10;99.90;;;;;;5048568;28;20095;-68
2023/05/28 02:38:39;;;;;;;1.75;1.10;;;10.20;99.90;;;;;;5050506;28;20443;-68
2023/05/28 02:41:05;;;;;;;0.98;0.88;;;10.20;99.90;;;;;;5046360;28;20119;-68
2023/05/28 02:43:31;;;;;;;0.75;0.75;;;10.20;99.90;;;;;;5057621;28;20119;-68
2023/05/28 02:45:57;;;;;;;1.02;1.02;;;10.30;99.90;;;;;;5043447;28;20124;-68
2023/05/28 02:48:22;;;;;;;1.05;0.80;;;10.20;99.90;;;;;;5050755;28;20531;-68
2023/05/28 02:50:48;;;;;;;0.30;0.30;;;10.20;99.90;;;;;;5042999;28;20479;-68
2023/05/28 02:53:14;;;;;;;0.73;0.73;;;10.20;99.90;;;;;;5050911;28;20064;-68
2023/05/28 02:55:40;;;;;;;0.55;0.55;;;10.20;99.90;;;;;;5054102;28;20502;-68
2023/05/28 02:58:05;;;;;;;1.08;1.08;;;10.30;99.90;;;;;;5057650;28;20088;-68
2023/05/28 03:00:31;;;;;;;0.40;0.40;;;10.30;99.90;;;;;;5050113;28;20074;-68
2023/05/28 03:02:57;;;;;;;0.40;0.40;;;10.30;99.90;;;;;;5049498;28;20063;-68
2023/05/28 03:05:23;;;;;;;1.50;1.08;;;10.30;99.90;;;;;;5050870;28;20037;-68
2023/05/28 03:07:49;;;;;;;0.60;0.60;;;10.40;99.90;;;;;;5049670;28;20445;-68
2023/05/28 03:10:15;;;;;;;0.95;0.95;;;10.40;99.90;;;;;;5046781;28;20090;-68
2023/05/28 03:12:41;;;;;;;0.35;0.35;;;10.40;99.90;;;;;;5048436;28;20049;-68
2023/05/28 03:15:07;;;;;;;0.60;0.60;;;10.40;99.90;;;;;;5054051;28;20132;-68
2023/05/28 03:17:33;;;;;;;0.60;0.60;;;10.40;99.90;;;;;;5035290;28;20037;-68
2023/05/28 03:19:58;;;;;;;0.47;0.47;;;10.40;99.90;;;;;;5046597;28;20049;-68
2023/05/28 03:22:25;;;;;;;2.47;1.75;;;10.40;99.90;;;;;;5054222;28;20136;-68
2023/05/28 03:24:50;;;;;;;0.60;0.60;;;10.40;99.90;;;;;;5047957;28;20052;-68
2023/05/28 03:27:16;;;;;;;0.80;0.65;;;10.40;99.90;;;;;;5054057;28;20929;-68
2023/05/28 03:29:42;;;;;;;0.40;0.40;;;10.40;99.90;;;;;;5048718;28;20045;-68
2023/05/28 03:32:07;;;;;;;0.32;0.32;;;10.50;99.90;;;;;;5053945;28;20047;-68
2023/05/28 03:34:33;;;;;;;0.85;0.85;;;10.50;99.90;;;;;;5042794;28;20460;-68
2023/05/28 03:36:59;;;;;;;0.65;0.65;;;10.50;99.90;;;;;;5042816;28;20100;-68
2023/05/28 03:39:25;;;;;;;0.50;0.50;;;10.60;99.90;;;;;;5054951;28;20045;-68
2023/05/28 03:41:50;;;;;;;1.00;0.77;;;10.60;99.90;;;;;;5046611;28;20049;-68
2023/05/28 03:44:17;;;;;;;0.40;0.40;;;10.60;99.90;;;;;;5052005;28;20055;-68
2023/05/28 03:46:43;;;;;;;0.32;0.32;;;10.60;99.90;;;;;;5054866;28;20444;-68
2023/05/28 03:49:09;;;;;;;0.75;0.60;;;10.60;99.90;;;;;;5047697;28;20063;-68
2023/05/28 03:51:34;;;;;;;0.82;0.82;;;10.60;99.90;;;;;;5051886;28;20041;-68
2023/05/28 03:54:00;;;;;;;0.85;0.63;;;10.60;99.90;;;;;;5036548;28;20053;-68
2023/05/28 03:56:26;;;;;;;1.33;0.90;;;10.60;99.90;;;;;;5049592;28;20079;-68
2023/05/28 03:58:52;;;;;;;0.65;0.65;;;10.60;99.90;;;;;;5046351;28;20060;-68
2023/05/28 04:01:18;;;;;;;0.70;0.70;;;10.60;99.90;;;;;;5056430;28;20033;-68
2023/05/28 04:03:43;;;;;;;0.80;0.80;;;10.60;99.90;;;;;;5056637;28;20044;-68
2023/05/28 04:06:10;;;;;;;0.77;0.50;;;10.60;99.90;;;;;;5054895;28;20498;-68
2023/05/28 04:08:36;;;;;;;0.38;0.38;;;10.60;99.90;;;;;;5056046;28;20044;-68
2023/05/28 04:11:03;;;;;;;1.45;1.38;;;10.60;99.90;;;;;;5057395;28;20047;-68
2023/05/28 04:13:29;;;;;;;0.40;0.40;;;10.70;99.90;;;;;;5050394;28;20064;-68
2023/05/28 04:15:55;;;;;;;1.42;1.33;;;10.70;99.90;;;;;;5055402;28;20049;-68
2023/05/28 04:18:21;;;;;;;2.35;1.70;;;10.70;99.90;;;;;;5058638;28;20049;-68
2023/05/28 04:20:47;;;;;;;0.43;0.43;;;10.70;99.90;;;;;;5052154;28;20391;-68
2023/05/28 04:23:12;;;;;;;0.82;0.80;;;10.80;99.90;;;;;;5050271;28;20502;-68
2023/05/28 04:25:38;;;;;;;0.70;0.70;;;10.80;99.90;;;;;;5051474;28;20036;-68
2023/05/28 04:28:04;;;;;;;0.28;0.28;;;10.90;99.90;;;;;;5057964;28;20106;-68
2023/05/28 04:30:30;;;;;;;0.50;0.50;;;10.90;99.90;;;;;;5054555;28;20110;-68
2023/05/28 04:32:56;;;;;;;0.55;0.55;;;10.90;99.90;;;;;;5054774;28;20128;-68
2023/05/28 04:35:22;;;;;;;0.45;0.45;;;10.90;99.90;;;;;;5051758;28;20049;-68
2023/05/28 04:37:50;;;;;;;0.60;0.60;;;10.90;99.90;;;;;;5058538;28;20461;-68
2023/05/28 04:40:17;;;;;;;0.52;0.52;;;10.90;99.90;;;;;;5054835;28;20123;-68
2023/05/28 04:42:43;;;;;;;0.65;0.65;;;10.90;99.90;;;;;;5054599;28;20041;-68
2023/05/28 04:45:12;;;;;;;0.73;0.73;;;11.00;99.90;;;;;;5061604;28;20111;-68
2023/05/28 04:47:37;;;;;;;1.17;0.93;;;11.10;99.90;;;;;;5046600;28;20045;-68
2023/05/28 04:50:04;;;;;;;0.35;0.35;;;11.20;99.90;;;;;;5053187;28;20051;-68
2023/05/28 04:52:35;;;;;;;0.55;0.52;;;11.30;99.90;;;;;;5055866;28;20037;-68
2023/05/28 04:55:04;;;;;;;0.30;0.30;;;11.40;99.90;;;;;;5057153;28;20131;-68
2023/05/28 04:57:32;;;;;;;0.50;0.50;;;11.40;99.90;;;;;;5053330;28;20131;-68
2023/05/28 04:59:58;;;;;;;0.95;0.90;;;11.40;99.90;;;;;;5070272;28;20146;-68
2023/05/28 05:02:24;;;;;;;3.17;1.40;;;11.40;99.90;;;;;;5058863;28;20072;-68
2023/05/28 05:04:50;;;;;;;0.57;0.57;;;11.40;99.90;;;;;;5055560;28;20075;-68
2023/05/28 05:07:16;;;;;;;0.93;0.93;;;11.50;99.90;;;;;;5054189;28;20155;-68
2023/05/28 05:09:42;;;;;;;1.38;0.95;;;11.50;99.90;;;;;;5048830;28;20042;-68
2023/05/28 05:12:09;;;;;;;0.50;0.50;;;11.60;99.90;;;;;;5057681;28;20553;-68
2023/05/28 05:14:35;;;;;;;0.40;0.40;;;11.60;99.90;;;;;;5049620;28;20087;-68
2023/05/28 05:17:02;;;;;;;0.77;0.77;;;11.60;99.90;;;;;;5046851;28;20040;-68
2023/05/28 05:19:28;;;;;;;0.63;0.63;;;11.60;99.90;;;;;;5054624;28;20052;-68
2023/05/28 05:21:54;;;;;;;0.90;0.82;;;11.60;99.90;;;;;;5051990;28;20444;-68
2023/05/28 05:24:20;;;;;;;0.50;0.50;;;11.60;99.90;;;;;;5050679;28;20128;-68
2023/05/28 05:26:46;;;;;;;0.50;0.50;;;11.60;99.90;;;;;;5054116;28;20041;-68
2023/05/28 05:29:12;;;;;;;0.50;0.50;;;11.70;99.90;;;;;;5057866;28;20043;-68
2023/05/28 05:31:37;;;;;;;1.25;1.15;;;11.70;99.90;;;;;;5051682;28;20045;-68
2023/05/28 05:34:04;;;;;;;0.50;0.50;;;11.80;99.90;;;;;;5053207;28;20044;-68
2023/05/28 05:36:30;;;;;;;0.30;0.30;;;11.80;99.90;;;;;;5050696;28;20064;-68
2023/05/28 05:38:56;;;;;;;1.15;1.05;;;11.80;99.90;;;;;;5055909;28;20047;-68
2023/05/28 05:41:22;;;;;;;1.08;0.95;;;12.00;99.90;;;;;;5054097;28;20040;-68
2023/05/28 05:43:47;;;;;;;0.65;0.57;;;12.20;99.90;;;;;;5049325;28;20041;-68
2023/05/28 05:46:13;;;;;;;0.90;0.90;;;12.40;99.90;;;;;;5054551;28;20086;-68
2023/05/28 05:48:39;;;;;;;0.80;0.77;;;12.60;99.90;;;;;;5059360;28;20132;-68
2023/05/28 05:51:06;;;;;;;0.63;0.63;;;12.60;99.90;;;;;;5048056;28;20041;-68
2023/05/28 05:53:31;;;;;;;1.73;1.10;;;12.70;99.90;;;;;;5057475;28;20052;-68
2023/05/28 05:55:57;;;;;;;5.00;1.25;;;12.70;99.90;;;;;;5050277;28;20118;-68
2023/05/28 05:58:23;;;;;;;0.93;0.93;;;12.80;99.90;;;;;;5048727;28;20053;-68
2023/05/28 06:00:48;;;;;;;1.35;1.35;;;12.90;99.90;;;;;;5057007;28;20032;-68
2023/05/28 06:03:14;;;;;;;0.77;0.70;;;13.00;99.90;;;;;;5050408;28;20406;-68
2023/05/28 06:05:40;;;;;;;0.73;0.73;;;13.10;99.90;;;;;;5051794;28;20115;-68
2023/05/28 06:08:06;;;;;;;0.98;0.98;;;13.20;99.90;;;;;;5046760;28;20569;-68
2023/05/28 06:10:32;;;;;;;0.85;0.85;;;13.30;99.90;;;;;;5053054;28;20044;-68
2023/05/28 06:13:01;;;;;;;1.02;0.93;;;13.40;99.90;;;;;;5046948;28;20049;-68
2023/05/28 06:15:28;;;;;;;1.85;1.55;;;13.40;99.90;;;;;;5051059;28;20051;-68
2023/05/28 06:17:55;;;;;;;2.13;1.85;;;13.40;99.90;;;;;;5049365;28;20053;-68
2023/05/28 06:20:21;;;;;;;2.65;1.20;;;13.50;99.90;;;;;;5057851;28;20056;-68
2023/05/28 06:22:47;;;;;;;7.53;1.67;;;13.50;99.90;;;;;;5046588;28;20049;-68
2023/05/28 06:25:14;;;;;;;1.05;1.05;;;13.50;99.90;;;;;;5056214;28;20128;-68
2023/05/28 06:27:40;;;;;;;0.50;0.50;;;13.60;99.90;;;;;;5051688;28;20080;-68
2023/05/28 06:30:08;;;;;;;0.43;0.43;;;13.70;99.90;;;;;;5054867;28;20061;-68
2023/05/28 06:32:33;;;;;;;1.63;1.45;;;13.80;99.90;;;;;;5047234;28;20479;-68
2023/05/28 06:35:00;;;;;;;1.80;1.70;;;13.90;99.90;;;;;;5048469;28;20040;-68
2023/05/28 06:37:27;;;;;;;0.65;0.65;;;14.00;99.90;;;;;;5056785;28;20045;-68
2023/05/28 06:39:52;;;;;;;0.63;0.63;;;14.10;99.90;;;;;;5047502;28;20646;-68
2023/05/28 06:42:18;;;;;;;1.50;1.40;;;14.20;99.90;;;;;;5055015;28;20094;-68
2023/05/28 06:44:45;;;;;;;2.38;0.98;;;14.40;99.90;;;;;;5059380;28;20048;-68
2023/05/28 06:47:10;;;;;;;1.77;1.67;;;14.60;99.90;;;;;;5049030;28;20098;-68
2023/05/28 06:49:36;;;;;;;1.02;1.02;;;14.80;99.90;;;;;;5056097;28;20041;-68
2023/05/28 06:52:02;;;;;;;0.68;0.68;;;15.00;99.90;;;;;;5052784;28;20108;-68
2023/05/28 06:54:27;;;;;;;1.52;1.42;;;15.20;99.90;;;;;;5044002;28;20608;-68
2023/05/28 06:56:53;;;;;;;2.30;2.20;;;15.40;99.90;;;;;;5044858;28;20056;-68
2023/05/28 06:59:18;;;;;;;1.80;1.20;;;15.40;99.90;;;;;;5046166;28;20040;-68
2023/05/28 07:01:44;;;;;;;1.02;1.02;;;15.60;99.90;;;;;;5053588;28;20048;-68
2023/05/28 07:04:10;;;;;;;2.38;2.08;;;15.80;99.90;;;;;;5049561;28;20080;-68
2023/05/28 07:06:35;;;;;;;1.67;1.50;;;16.10;99.90;;;;;;5048779;28;20192;-68
2023/05/28 07:09:01;;;;;;;1.58;1.48;;;16.20;99.90;;;;;;5049730;28;20048;-68
2023/05/28 07:11:26;;;;;;;1.05;1.02;;;16.40;99.90;;;;;;5047585;28;20076;-68
2023/05/28 07:13:54;;;;;;;6.95;1.98;;;16.50;99.90;;;;;;5048708;28;20734;-68
2023/05/28 07:16:21;;;;;;;1.88;1.70;;;16.60;99.90;;;;;;5047481;28;20430;-68
2023/05/28 07:18:47;;;;;;;1.77;1.67;;;16.60;99.90;;;;;;5048267;28;20052;-68
2023/05/28 07:21:12;;;;;;;1.13;1.10;;;16.70;99.90;;;;;;5050530;28;20091;-68
2023/05/28 07:23:38;;;;;;;2.85;1.85;;;16.90;99.90;;;;;;5047983;28;20417;-68
2023/05/28 07:26:04;;;;;;;2.22;2.08;;;17.10;99.90;;;;;;5048465;28;20524;-68
2023/05/28 07:28:30;;;;;;;2.13;2.03;;;17.10;99.90;;;;;;5045149;28;20417;-68
2023/05/28 07:30:56;;;;;;;1.67;1.55;;;17.10;99.90;;;;;;5053500;28;20071;-68
2023/05/28 07:33:22;;;;;;;3.70;2.28;;;17.20;99.90;;;;;;5048175;28;20059;-68
2023/05/28 07:35:48;;;;;;;1.15;1.15;;;17.30;99.90;;;;;;5052313;28;20071;-68
2023/05/28 07:38:14;;;;;;;3.90;1.48;;;17.30;99.50;;;;;;5047962;28;20072;-68
2023/05/28 07:40:43;;;;;;;0.82;0.82;;;17.40;99.90;;;;;;5058713;28;20044;-68
2023/05/28 07:43:09;;;;;;;2.70;1.85;;;17.50;99.90;;;;;;5057051;28;20040;-68
2023/05/28 07:45:34;;;;;;;0.80;0.80;;;17.50;99.90;;;;;;5049612;28;20045;-68
2023/05/28 07:48:00;;;;;;;5.93;3.08;;;17.60;99.90;;;;;;5053509;28;20037;-68
2023/05/28 07:50:29;;;;;;;2.15;1.83;;;17.70;99.90;;;;;;5043988;28;20037;-68
2023/05/28 07:52:55;;;;;;;3.45;1.48;;;17.80;98.40;;;;;;5050545;28;20048;-68
2023/05/28 07:55:21;;;;;;;4.28;1.83;;;18.00;99.10;;;;;;5058202;28;20052;-68
2023/05/28 07:57:46;;;;;;;2.00;1.85;;;18.30;96.40;;;;;;5054857;28;20049;-68
2023/05/28 08:00:15;;;;;;;0.82;0.82;;;18.50;92.00;;;;;;5049859;28;20078;-68
2023/05/28 08:02:45;;;;;;;1.98;1.88;;;18.70;90.00;;;;;;5049904;28;20045;-68
2023/05/28 08:05:11;;;;;;;2.42;2.10;;;18.70;90.90;;;;;;5054254;28;20040;-68
2023/05/28 08:07:37;;;;;;;3.60;2.08;;;18.80;85.30;;;;;;5055234;28;20060;-68
2023/05/28 08:10:03;;;;;;;2.38;2.25;;;18.90;80.30;;;;;;5049474;28;20045;-68
2023/05/28 08:12:29;;;;;;;2.60;1.95;;;19.00;90.40;;;;;;5054553;28;20041;-68
2023/05/28 08:14:55;;;;;;;1.60;1.50;;;19.10;74.60;;;;;;5052484;28;20185;-68
2023/05/28 08:17:23;;;;;;;1.08;0.98;;;19.20;72.10;;;;;;5055754;28;20049;-68
2023/05/28 08:19:50;;;;;;;3.72;1.85;;;19.30;70.40;;;;;;5055951;28;20102;-68
2023/05/28 08:22:16;;;;;;;4.05;3.17;;;19.40;72.70;;;;;;5043499;28;20128;-68
2023/05/28 08:24:41;;;;;;;1.98;1.52;;;19.30;69.80;;;;;;5058832;28;20508;-69
2023/05/28 08:27:07;;;;;;;4.45;3.53;;;19.40;69.20;;;;;;5056679;28;20045;-69
2023/05/28 08:29:33;;;;;;;2.33;1.80;;;19.40;67.10;;;;;;5055166;28;20132;-69
2023/05/28 08:31:59;;;;;;;1.90;1.58;;;19.40;68.70;;;;;;5051009;28;20056;-68
2023/05/28 08:34:26;;;;;;;2.08;1.80;;;19.30;68.00;;;;;;5050795;28;20049;-68
2023/05/28 08:36:52;;;;;;;1.83;1.70;;;19.30;69.50;;;;;;5052563;28;20076;-68
2023/05/28 08:39:17;;;;;;;2.30;2.20;;;19.30;68.80;;;;;;5053697;28;20581;-69
2023/05/28 08:41:44;;;;;;;0.95;0.95;;;19.40;69.90;;;;;;5058010;28;20036;-69
2023/05/28 08:44:10;;;;;;;2.58;2.38;;;19.60;68.40;;;;;;5049772;28;20136;-68
2023/05/28 08:46:36;;;;;;;1.65;1.58;;;19.80;72.60;;;;;;5053851;28;20041;-69
2023/05/28 08:49:03;;;;;;;4.07;2.53;;;20.00;73.20;;;;;;5059723;28;20048;-69
2023/05/28 08:51:32;;;;;;;2.00;1.05;;;20.20;71.20;;;;;;5053002;28;20073;-69
2023/05/28 08:53:59;;;;;;;4.45;1.75;;;20.20;69.60;;;;;;5060977;28;20061;-68
2023/05/28 08:56:25;;;;;;;3.20;2.28;;;20.10;69.10;;;;;;5034494;28;20492;-69
2023/05/28 08:58:51;;;;;;;0.85;0.85;;;20.20;71.60;;;;;;5058643;28;20059;-69
2023/05/28 09:01:17;;;;;;;0.85;0.85;;;20.40;71.90;;;;;;5051998;28;20406;-68
2023/05/28 09:03:43;;;;;;;1.95;1.85;;;20.70;72.70;;;;;;5057324;28;20043;-69
2023/05/28 09:06:09;;;;;;;2.72;2.45;;;20.90;70.30;;;;;;5058123;28;20051;-69
2023/05/28 09:08:35;;;;;;;1.98;1.88;;;20.70;67.10;;;;;;5051268;28;20067;-69
2023/05/28 09:11:14;;;;;;;2.28;1.38;;;20.80;67.10;;;;;;5051323;28;20045;-69
2023/05/28 09:13:45;;;;;;;2.55;1.05;;;20.90;68.10;;;;;;5051474;28;20048;-69
2023/05/28 09:16:20;;;;;;;14.57;1.15;;;21.00;70.60;;;;;;5050156;28;20106;-69
2023/05/28 09:18:48;;;;;;;1.00;1.00;;;21.00;65.80;;;;;;5052532;28;20072;-69
2023/05/28 09:21:14;;;;;;;2.58;2.25;;;20.90;64.30;;;;;;5052971;28;20045;-69
2023/05/28 09:23:39;;;;;;;1.48;1.38;;;21.00;66.30;;;;;;5055642;28;20041;-69
2023/05/28 09:26:09;;;;;;;0.57;0.57;;;21.20;65.70;;;;;;5033566;28;20037;-69
2023/05/28 09:28:35;;;;;;;3.38;1.60;;;21.20;67.60;;;;;;5056004;28;20084;-69
2023/05/28 09:31:07;;;;;;;1.75;1.65;;;21.20;62.40;;;;;;5041864;28;20494;-68
2023/05/28 09:33:33;;;;;;;2.22;1.95;;;21.10;63.90;;;;;;5056223;28;20051;-70
2023/05/28 09:36:00;;;;;;;3.25;1.30;;;21.20;61.90;;;;;;5058114;28;20502;-69
2023/05/28 09:38:27;;;;;;;3.67;1.37;;;21.40;60.70;;;;;;5055283;28;20440;-69
2023/05/28 09:40:56;;;;;;;1.63;1.52;;;21.20;58.40;;;;;;5057171;28;20099;-69
2023/05/28 09:43:30;;;;;;;4.53;2.65;;;21.10;58.90;;;;;;5055351;28;20408;-69
2023/05/28 09:46:09;;;;;;;1.60;1.50;;;21.20;60.20;;;;;;5052496;28;20056;-69
2023/05/28 09:48:35;;;;;;;1.35;1.25;;;21.50;62.40;;;;;;5056638;28;20397;-69
2023/05/28 09:51:04;;;;;;;2.25;1.92;;;21.60;59.60;;;;;;5049390;28;20074;-69
2023/05/28 09:53:34;;;;;;;2.20;2.10;;;21.70;59.00;;;;;;5051910;28;20049;-69
2023/05/28 09:56:00;;;;;;;0.95;0.95;;;21.70;58.40;;;;;;5048945;28;20049;-69
2023/05/28 09:58:36;;;;;;;2.30;2.10;;;21.80;57.90;;;;;;5055281;28;20036;-69
2023/05/28 10:01:09;;;;;;;4.30;3.35;;;21.80;56.00;;;;;;5051653;28;20106;-69
2023/05/28 10:03:38;;;;;;;2.38;2.08;;;21.80;56.00;;;;;;5053264;28;20040;-69
2023/05/28 10:06:11;;;;;;;6.78;2.42;;;21.70;56.00;;;;;;5048128;28;20621;-69
2023/05/28 10:08:40;;;;;;;2.78;1.50;;;21.70;53.80;;;;;;5047076;28;20426;-69
2023/05/28 10:11:09;;;;;;;2.85;1.95;;;21.70;54.50;;;;;;5055646;28;20041;-69
2023/05/28 10:13:35;;;;;;;2.22;1.98;;;21.70;53.10;;;;;;5048291;28;20051;-68
2023/05/28 10:16:02;;;;;;;0.73;0.73;;;21.90;57.00;;;;;;5056073;28;20414;-69
2023/05/28 10:18:28;;;;;;;0.88;0.88;;;22.10;52.90;;;;;;5056053;28;20114;-69
2023/05/28 10:20:54;;;;;;;2.60;2.08;;;22.20;52.60;;;;;;5052326;28;20502;-69
2023/05/28 10:23:21;;;;;;;1.40;1.17;;;22.10;52.40;;;;;;5045134;28;20051;-69
2023/05/28 10:25:47;;;;;;;1.73;1.50;;;22.20;54.80;;;;;;5050920;28;20528;-69
2023/05/28 10:28:18;;;;;;;1.85;1.67;;;22.40;54.00;;;;;;5048222;28;20510;-69
2023/05/28 10:30:45;;;;;;;3.25;1.75;;;22.40;51.10;;;;;;5050172;28;20422;-69
2023/05/28 10:33:15;;;;;;;1.90;1.58;;;22.40;52.20;;;;;;5054165;28;20506;-69
2023/05/28 10:35:55;;;;;;;1.85;1.52;;;22.40;51.70;;;;;;5059038;28;20040;-68
2023/05/28 10:38:22;;;;;;;5.28;2.10;;;22.60;52.40;;;;;;5051212;28;20124;-69
2023/05/28 10:40:51;;;;;;;0.50;0.50;;;22.70;53.00;;;;;;5049306;28;20060;-69
2023/05/28 10:43:38;;;;;;;1.95;1.70;;;22.70;52.20;;;;;;5033182;28;20056;-69
2023/05/28 10:46:34;;;;;;;3.90;1.30;;;22.60;50.10;;;;;;5055590;28;20080;-69
2023/05/28 10:49:16;;;;;;;1.10;1.00;;;22.60;51.00;;;;;;5052178;28;20050;-69
2023/05/28 10:51:45;;;;;;;5.53;2.22;;;22.60;52.00;;;;;;5040871;28;20123;-69
2023/05/28 10:54:30;;;;;;;1.80;1.65;;;22.50;51.40;;;;;;5044252;28;20053;-69
2023/05/28 10:57:16;;;;;;;1.50;1.40;;;22.40;50.20;;;;;;5043739;28;20048;-69
2023/05/28 10:59:50;;;;;;;1.88;1.77;;;22.50;51.40;;;;;;5047497;28;20409;-69
2023/05/28 11:02:18;;;;;;;7.72;2.88;;;22.50;50.50;;;;;;5046387;28;20046;-69
2023/05/28 11:04:43;;;;;;;;;;;22.50;52.20;;;;;;5045659;28;20044;-69
2023/05/28 11:07:11;;;;;;;3.72;2.58;;;22.40;50.90;;;;;;5048986;28;19928;-69
2023/05/28 11:09:38;;;;;;;1.67;1.58;;;22.40;52.10;;;;;;5049491;28;20378;-69
2023/05/28 11:12:05;;;;;;;2.58;2.15;;;22.60;52.70;;;;;;5055199;28;20048;-69
2023/05/28 11:14:35;;;;;;;4.50;1.55;;;22.90;51.60;;;;;;5051634;28;20044;-69
2023/05/28 11:17:01;;;;;;;2.17;1.95;;;23.00;47.90;;;;;;5052834;28;20044;-68
2023/05/28 11:19:27;;;;;;;1.67;1.58;;;23.30;49.80;;;;;;5051803;28;20046;-68
2023/05/28 11:21:55;;;;;;;1.10;1.02;;;23.40;49.80;;;;;;5054854;28;20827;-68
2023/05/28 11:24:23;;;;;;;1.55;1.23;;;23.50;46.90;;;;;;5037696;28;20041;-69
2023/05/28 11:26:51;;;;;;;;;;;23.60;47.50;;;;;;5054581;28;20044;-69
2023/05/28 11:29:16;;;;;;;1.85;1.75;;;23.60;45.70;;;;;;5062411;28;19920;-69
2023/05/28 11:31:42;;;;;;;2.47;2.28;;;23.50;45.80;;;;;;5059267;28;20506;-69
2023/05/28 11:34:09;;;;;;;0.95;0.95;;;23.30;43.20;;;;;;5056553;28;20139;-69
2023/05/28 11:36:42;;;;;;;1.25;1.25;;;23.20;44.30;;;;;;5052305;28;20533;-69
2023/05/28 11:39:09;;;;;;;1.27;1.17;;;23.20;43.70;;;;;;5056717;28;20056;-69
2023/05/28 11:41:35;;;;;;;0.80;0.80;;;23.30;46.80;;;;;;5049975;28;20056;-69
2023/05/28 11:44:01;;;;;;;2.03;1.50;;;23.50;43.00;;;;;;5060203;28;20553;-69
2023/05/28 11:46:27;;;;;;;2.88;1.27;;;23.40;43.90;;;;;;5059270;28;20154;-69
2023/05/28 11:48:52;;;;;;;3.63;2.28;;;23.10;43.20;;;;;;5060865;28;20110;-69
2023/05/28 11:51:21;;;;;;;1.73;1.63;;;22.90;42.50;;;;;;5057695;28;20044;-69
2023/05/28 11:53:47;;;;;;;5.95;3.63;;;22.90;41.70;;;;;;5062302;28;20056;-69
2023/05/28 11:56:13;;;;;;;2.13;2.03;;;22.90;41.70;;;;;;5051658;28;20045;-69
2023/05/28 11:58:45;;;;;;;1.60;1.48;;;22.80;42.20;;;;;;5051741;28;20043;-69
2023/05/28 12:01:17;;;;;;;2.15;2.05;;;22.90;41.20;;;;;;5053011;28;20509;-68
2023/05/28 12:03:43;;;;;;;1.17;1.17;;;22.80;41.00;;;;;;5053990;28;20052;-69
2023/05/28 12:06:14;;;;;;;0.40;0.40;;;22.90;41.50;;;;;;5050123;28;20045;-69
2023/05/28 12:08:39;;;;;;;0.45;0.45;;;23.20;42.90;;;;;;5041154;28;20087;-69
2023/05/28 12:11:07;;;;;;;1.45;1.35;;;23.40;45.00;;;;;;5049194;28;20102;-69
2023/05/28 12:13:37;;;;;;;1.95;1.85;;;23.60;43.20;;;;;;5054836;28;20040;-69
2023/05/28 12:16:10;;;;;;;3.85;2.30;;;23.90;42.80;;;;;;5048129;28;20177;-69
2023/05/28 12:18:43;;;;;;;0.85;0.85;;;24.00;41.00;;;;;;5057323;28;20048;-69
2023/05/28 12:21:13;;;;;;;1.55;1.45;;;23.70;41.80;;;;;;5057327;28;20041;-69
2023/05/28 12:23:39;;;;;;;1.63;1.45;;;23.70;42.40;;;;;;5053923;28;20053;-69
2023/05/28 12:26:10;;;;;;;1.13;1.13;;;23.50;42.20;;;;;;5052648;28;20045;-69
2023/05/28 12:28:39;;;;;;;2.45;1.42;;;23.50;43.30;;;;;;5055048;28;20052;-68
2023/05/28 12:31:06;;;;;;;5.30;1.63;;;23.50;43.10;;;;;;5056310;28;20055;-69
2023/05/28 12:33:31;;;;;;;1.83;1.73;;;23.20;41.50;;;;;;5053274;28;20045;-69
2023/05/28 12:35:59;;;;;;;2.08;1.95;;;23.10;43.40;;;;;;5061807;28;20119;-69
2023/05/28 12:38:26;;;;;;;4.97;0.80;;;23.20;45.10;;;;;;5044527;28;20036;-69
2023/05/28 12:40:52;;;;;;;1.05;1.05;;;23.30;46.00;;;;;;5056163;28;20032;-69
2023/05/28 12:43:18;;;;;;;1.65;1.50;;;23.60;46.30;;;;;;5051745;28;20650;-69
2023/05/28 12:45:44;;;;;;;0.95;0.95;;;23.60;46.60;;;;;;5049074;28;20045;-69
2023/05/28 12:48:10;;;;;;;0.50;0.50;;;23.70;47.10;;;;;;5048150;28;20482;-69